Granger, Texas
Current Conditions -  °F | °C
As of 4:55 PM on Tuesday 21 Oct 2014 (Local Time) from KGRK Reporting Station
Few Clouds Few Clouds  
Wind Chill: 81°   Ceiling: Unl
Heat Index: 81°   Visibility: 7mi
Dew Point: 48°   Wind: 10mph
Humidity: 32%   Direction: 120°ESE
Pressure: 30.01"   Gusts: NA
Location:  30.72°N, 97.44°W
Report Text: KGRK 212155Z 12009KT 7SM FEW200 27/09 A3001 RMK SLP162
Loading
Personal Weather Stations






























Interactive Weather Map
Tropical Storm Tracking
New forecast layout! Learn more

10-Day Weather Forecast

Advertisements
Track Severe Weather on mobile